createdAt,value
2022-11-18T00:02:21.729Z,3.83
2022-11-18T00:04:50.182Z,1.40
2022-11-18T00:07:19.043Z,2.70
2022-11-18T00:09:47.524Z,4.50
2022-11-18T00:12:34.289Z,3.73
2022-11-18T00:15:04.296Z,3.07
2022-11-18T00:17:33.784Z,2.43
2022-11-18T00:20:02.379Z,2.33
2022-11-18T00:22:30.811Z,4.67
2022-11-18T00:24:59.373Z,2.43
2022-11-18T00:27:27.979Z,2.97
2022-11-18T00:29:56.403Z,2.30
2022-11-18T00:32:26.266Z,2.60
2022-11-18T00:34:54.674Z,3.47
2022-11-18T00:37:23.142Z,2.50
2022-11-18T00:39:51.551Z,1.87
2022-11-18T00:42:37.614Z,2.57
2022-11-18T00:45:06.280Z,1.63
2022-11-18T00:47:36.255Z,1.63
2022-11-18T00:50:04.685Z,3.07
2022-11-18T00:52:33.129Z,1.50
2022-11-18T00:55:02.033Z,4.17
2022-11-18T00:57:30.512Z,1.87
2022-11-18T00:59:58.907Z,1.63
2022-11-18T01:02:27.335Z,4.70
2022-11-18T01:04:57.564Z,2.47
2022-11-18T01:07:26.088Z,3.17
2022-11-18T01:09:54.599Z,1.43
2022-11-18T01:12:40.678Z,2.40
2022-11-18T01:15:09.585Z,2.50
2022-11-18T01:17:38.048Z,1.80
2022-11-18T01:20:08.479Z,1.90
2022-11-18T01:22:36.896Z,2.90
2022-11-18T01:25:05.496Z,1.67
2022-11-18T01:27:34.067Z,3.30
2022-11-18T01:30:02.464Z,1.90
2022-11-18T01:32:33.728Z,2.10
2022-11-18T01:35:02.186Z,1.63
2022-11-18T01:37:33.015Z,3.53
2022-11-18T01:40:01.429Z,1.63
2022-11-18T01:42:29.982Z,2.43
2022-11-18T01:45:05.029Z,1.60
2022-11-18T01:47:34.877Z,3.57
2022-11-18T01:50:03.676Z,2.53
2022-11-18T01:52:34.551Z,3.23
2022-11-18T01:55:07.231Z,1.70
2022-11-18T01:57:35.734Z,6.57
2022-11-18T02:00:05.942Z,3.97
2022-11-18T02:02:35.716Z,3.67
2022-11-18T02:05:06.374Z,2.33
2022-11-18T02:07:37.751Z,2.00
2022-11-18T02:10:07.551Z,1.87
2022-11-18T02:12:36.406Z,2.67
2022-11-18T02:15:05.275Z,4.60
2022-11-18T02:17:38.025Z,2.20
2022-11-18T02:20:23.952Z,2.37
2022-11-18T02:23:10.105Z,2.73
2022-11-18T02:25:43.843Z,4.13
2022-11-18T02:28:36.203Z,2.00
2022-11-18T02:31:09.190Z,3.67
2022-11-18T02:33:40.424Z,1.50
2022-11-18T02:36:14.395Z,3.70
2022-11-18T02:38:45.180Z,2.33
2022-11-18T02:41:17.160Z,2.27
2022-11-18T02:43:47.147Z,2.10
2022-11-18T02:46:22.836Z,3.40
2022-11-18T02:48:53.441Z,2.40
2022-11-18T02:51:23.997Z,3.23
2022-11-18T02:53:52.956Z,3.20
2022-11-18T02:56:21.994Z,1.87
2022-11-18T02:58:50.653Z,4.10
2022-11-18T03:01:22.206Z,2.13
2022-11-18T03:03:50.985Z,1.57
2022-11-18T03:06:26.160Z,2.83
2022-11-18T03:08:59.664Z,2.23
2022-11-18T03:11:30.454Z,2.83
2022-11-18T03:14:06.729Z,2.27
2022-11-18T03:16:40.523Z,1.43
2022-11-18T03:19:11.706Z,5.03
2022-11-18T03:21:42.952Z,2.27
2022-11-18T03:24:13.232Z,2.00
2022-11-18T03:26:43.010Z,1.33
2022-11-18T03:29:15.176Z,2.07
2022-11-18T03:31:47.489Z,2.50
2022-11-18T03:34:19.223Z,1.50
2022-11-18T03:36:52.155Z,2.63
2022-11-18T03:39:21.746Z,2.33
2022-11-18T03:41:52.513Z,1.70
2022-11-18T03:44:23.058Z,1.20
2022-11-18T03:46:54.526Z,4.00
2022-11-18T03:49:26.470Z,3.53
2022-11-18T03:51:57.456Z,1.53
2022-11-18T03:54:26.891Z,2.60
2022-11-18T03:56:58.377Z,1.40
2022-11-18T03:59:28.447Z,2.03
2022-11-18T04:02:00.485Z,1.60
2022-11-18T04:04:29.623Z,1.57
2022-11-18T04:07:02.754Z,1.07
2022-11-18T04:09:32.602Z,0.90
2022-11-18T04:12:04.533Z,1.07
2022-11-18T04:14:33.776Z,0.50
2022-11-18T04:17:06.989Z,0.63
2022-11-18T04:19:35.430Z,0.57
2022-11-18T04:22:05.457Z,0.60
2022-11-18T04:24:33.884Z,0.50
2022-11-18T04:27:03.442Z,1.33
2022-11-18T04:29:31.963Z,1.23
2022-11-18T04:32:01.224Z,1.40
2022-11-18T04:34:31.055Z,0.53
2022-11-18T04:36:59.690Z,0.70
2022-11-18T04:39:28.506Z,1.20
2022-11-18T04:41:56.985Z,2.60
2022-11-18T04:44:25.618Z,0.97
2022-11-18T04:46:54.397Z,0.40
2022-11-18T04:49:22.944Z,0.93
2022-11-18T04:51:53.121Z,1.07
2022-11-18T04:54:22.101Z,0.70
2022-11-18T04:56:50.812Z,0.80
2022-11-18T04:59:20.913Z,0.70
2022-11-18T05:01:49.817Z,1.53
2022-11-18T05:04:19.402Z,1.27
2022-11-18T05:06:47.805Z,0.57
2022-11-18T05:09:17.963Z,1.40
2022-11-18T05:12:04.586Z,0.50
2022-11-18T05:14:33.384Z,1.77
2022-11-18T05:17:03.233Z,0.60
2022-11-18T05:19:31.672Z,0.70
2022-11-18T05:22:00.197Z,0.60
2022-11-18T05:24:29.975Z,1.83
2022-11-18T05:26:58.386Z,0.70
2022-11-18T05:29:26.806Z,0.80
2022-11-18T05:31:55.301Z,0.70
2022-11-18T05:34:23.821Z,1.53
2022-11-18T05:36:52.687Z,0.87
2022-11-18T05:39:21.476Z,0.60
2022-11-18T05:42:10.977Z,0.83
2022-11-18T05:44:39.406Z,1.43
2022-11-18T05:47:08.101Z,1.27
2022-11-18T05:49:36.485Z,0.87
2022-11-18T05:52:05.226Z,1.27
2022-11-18T05:54:33.984Z,1.00
2022-11-18T05:57:03.802Z,2.50
2022-11-18T05:59:32.202Z,2.17
2022-11-18T06:02:02.472Z,1.43
2022-11-18T06:04:33.485Z,2.00
2022-11-18T06:07:05.099Z,1.37
2022-11-18T06:09:37.224Z,2.00
2022-11-18T06:12:08.146Z,0.60
2022-11-18T06:14:37.951Z,1.40
2022-11-18T06:17:07.650Z,1.40
2022-11-18T06:19:36.292Z,2.37
2022-11-18T06:22:05.351Z,1.30
2022-11-18T06:24:34.280Z,1.87
2022-11-18T06:27:04.268Z,0.87
2022-11-18T06:29:34.006Z,1.10
2022-11-18T06:32:02.398Z,2.10
2022-11-18T06:34:30.820Z,1.63
2022-11-18T06:36:59.350Z,1.43
2022-11-18T06:39:28.118Z,2.67
2022-11-18T06:41:56.544Z,1.27
2022-11-18T06:44:23.998Z,1.40
2022-11-18T06:46:57.034Z,1.00
2022-11-18T06:49:25.902Z,2.30
2022-11-18T06:51:54.518Z,3.33
2022-11-18T06:54:24.204Z,1.10
2022-11-18T06:56:52.678Z,1.73
2022-11-18T06:59:23.923Z,1.73
2022-11-18T07:01:54.219Z,1.80
2022-11-18T07:04:22.733Z,1.30
2022-11-18T07:06:51.193Z,1.67
2022-11-18T07:09:19.879Z,2.40
2022-11-18T07:11:48.627Z,1.67
2022-11-18T07:14:17.068Z,1.50
2022-11-18T07:16:45.582Z,1.43
2022-11-18T07:19:15.845Z,2.30
2022-11-18T07:21:44.550Z,1.37
2022-11-18T07:24:14.347Z,2.83
2022-11-18T07:26:42.990Z,1.80
2022-11-18T07:29:12.591Z,2.37
2022-11-18T07:31:41.054Z,1.17
2022-11-18T07:34:09.808Z,1.27
2022-11-18T07:36:39.622Z,1.60
2022-11-18T07:39:09.261Z,2.03
2022-11-18T07:41:38.143Z,0.87
2022-11-18T07:44:07.482Z,1.10
2022-11-18T07:46:36.854Z,1.70
2022-11-18T07:49:06.520Z,1.00
2022-11-18T07:51:35.612Z,2.53
2022-11-18T07:54:12.338Z,1.40
2022-11-18T07:56:41.269Z,2.03
2022-11-18T07:59:10.582Z,1.07
2022-11-18T08:01:39.957Z,1.60
2022-11-18T08:04:10.176Z,2.10
2022-11-18T08:06:39.339Z,0.70
2022-11-18T08:09:08.412Z,1.40
2022-11-18T08:11:38.400Z,1.87
2022-11-18T08:14:06.798Z,3.93
2022-11-18T08:16:38.039Z,2.80
2022-11-18T08:19:06.654Z,3.63
2022-11-18T08:21:35.099Z,10.60
2022-11-18T08:24:03.627Z,1.13
2022-11-18T08:26:32.101Z,1.03
2022-11-18T08:29:01.949Z,1.83
2022-11-18T08:31:32.326Z,2.93
2022-11-18T08:34:01.683Z,3.23
2022-11-18T08:36:30.733Z,4.27
2022-11-18T08:38:59.264Z,10.33
2022-11-18T08:41:31.351Z,4.53
2022-11-18T08:44:02.692Z,2.43
2022-11-18T08:46:31.241Z,3.13
2022-11-18T08:49:00.984Z,4.50
2022-11-18T08:51:29.634Z,1.53
2022-11-18T08:53:58.560Z,3.33
2022-11-18T08:56:27.071Z,5.13
2022-11-18T08:58:55.557Z,1.00
2022-11-18T09:01:25.718Z,1.17
2022-11-18T09:03:54.173Z,2.93
2022-11-18T09:06:24.766Z,1.87
2022-11-18T09:08:53.746Z,0.50
2022-11-18T09:11:22.955Z,1.23
2022-11-18T09:16:44.392Z,2.27
2022-11-18T09:22:01.832Z,3.53
2022-11-18T09:24:30.249Z,7.13
2022-11-18T09:26:58.692Z,1.33
2022-11-18T09:29:27.202Z,0.93
2022-11-18T09:34:39.378Z,1.70
2022-11-18T09:37:08.115Z,2.10
2022-11-18T09:39:37.456Z,1.70
2022-11-18T09:42:13.143Z,2.23
2022-11-18T09:44:52.247Z,4.00
2022-11-18T09:47:27.386Z,1.13
2022-11-18T09:49:56.586Z,2.07
2022-11-18T09:52:29.150Z,1.37
2022-11-18T09:55:00.359Z,1.53
2022-11-18T09:57:36.939Z,1.13
2022-11-18T10:00:08.377Z,1.57
2022-11-18T10:02:48.724Z,1.43
2022-11-18T10:05:19.242Z,1.40
2022-11-18T10:08:05.632Z,0.50
2022-11-18T10:10:39.868Z,0.93
2022-11-18T10:13:13.975Z,2.03
2022-11-18T10:15:45.128Z,0.83
2022-11-18T10:18:38.256Z,0.40
2022-11-18T10:21:15.716Z,1.17
2022-11-18T10:23:51.561Z,3.10
2022-11-18T10:26:32.481Z,3.00
2022-11-18T10:29:01.056Z,1.73
2022-11-18T10:31:31.929Z,1.37
2022-11-18T10:34:02.453Z,1.47
2022-11-18T10:36:33.294Z,1.87
2022-11-18T10:39:12.701Z,2.37
2022-11-18T10:41:43.594Z,2.60
2022-11-18T10:44:42.741Z,2.63
2022-11-18T10:47:26.239Z,2.93
2022-11-18T10:49:56.967Z,2.93
2022-11-18T10:52:26.085Z,1.57
2022-11-18T10:55:12.862Z,1.47
2022-11-18T10:57:43.584Z,1.47
2022-11-18T11:00:27.083Z,1.20
2022-11-18T11:02:55.569Z,2.80
2022-11-18T11:05:26.544Z,2.47
2022-11-18T11:08:29.170Z,4.93
2022-11-18T11:10:56.803Z,0.80
2022-11-18T11:13:26.447Z,1.13
2022-11-18T11:15:58.111Z,1.37
2022-11-18T11:18:43.472Z,0.70
2022-11-18T11:21:15.059Z,2.10
2022-11-18T11:23:43.849Z,2.13
2022-11-18T11:29:09.881Z,1.30
2022-11-18T11:31:50.037Z,1.50
2022-11-18T11:34:23.085Z,0.97
2022-11-18T11:36:55.495Z,0.93
2022-11-18T11:39:36.275Z,1.93
2022-11-18T11:42:10.840Z,1.33
2022-11-18T11:44:45.216Z,0.90
2022-11-18T11:47:38.237Z,0.70
2022-11-18T11:50:13.952Z,1.13
2022-11-18T11:52:52.298Z,1.00
2022-11-18T11:55:24.157Z,1.23
2022-11-18T11:57:58.428Z,2.17
2022-11-18T12:00:28.809Z,2.17
2022-11-18T12:03:07.802Z,1.83
2022-11-18T12:05:39.356Z,2.50
2022-11-18T12:08:12.468Z,1.10
2022-11-18T12:10:46.118Z,1.40
2022-11-18T12:13:20.460Z,1.07
2022-11-18T12:15:54.690Z,1.87
2022-11-18T12:18:24.962Z,3.37
2022-11-18T12:20:55.865Z,1.00
2022-11-18T12:23:27.029Z,1.50
2022-11-18T12:25:57.040Z,1.87
2022-11-18T12:28:26.687Z,0.77
2022-11-18T12:31:10.135Z,1.20
2022-11-18T12:33:43.942Z,1.13
2022-11-18T12:36:12.437Z,2.37
2022-11-18T12:38:42.307Z,1.53
2022-11-18T12:41:45.633Z,1.60
2022-11-18T12:44:13.067Z,1.07
2022-11-18T12:46:55.159Z,1.47
2022-11-18T12:49:42.287Z,2.10
2022-11-18T12:52:42.515Z,1.07
2022-11-18T12:55:17.157Z,1.30
2022-11-18T12:57:45.642Z,1.13
2022-11-18T13:00:29.033Z,2.70
2022-11-18T13:02:58.679Z,1.30
2022-11-18T13:05:29.053Z,1.37
2022-11-18T13:08:14.933Z,1.33
2022-11-18T13:10:54.496Z,3.20
2022-11-18T13:13:26.867Z,1.43
2022-11-18T13:16:13.396Z,1.97
2022-11-18T13:18:51.920Z,2.17
2022-11-18T13:21:42.156Z,2.30
2022-11-18T13:24:13.155Z,1.97
2022-11-18T13:26:44.280Z,1.63
2022-11-18T13:29:20.642Z,2.67
2022-11-18T13:31:53.843Z,2.57
2022-11-18T13:34:25.674Z,2.00
2022-11-18T13:36:55.077Z,1.70
2022-11-18T13:39:24.526Z,1.50
2022-11-18T13:42:06.794Z,2.63
2022-11-18T13:44:36.799Z,2.50
2022-11-18T13:47:08.693Z,4.07
2022-11-18T13:49:50.335Z,2.93
2022-11-18T13:52:21.545Z,2.60
2022-11-18T13:54:51.701Z,3.40
2022-11-18T13:57:22.298Z,3.00
2022-11-18T13:59:50.966Z,3.27
2022-11-18T14:02:19.757Z,6.30
2022-11-18T14:04:51.316Z,2.03
2022-11-18T14:07:31.325Z,8.97
2022-11-18T14:10:01.479Z,2.10
2022-11-18T14:12:32.591Z,2.73
2022-11-18T14:15:31.678Z,1.97
2022-11-18T14:18:04.049Z,2.47
2022-11-18T14:20:32.951Z,2.57
2022-11-18T14:23:05.587Z,2.77
2022-11-18T14:25:35.382Z,2.23
2022-11-18T14:28:14.110Z,2.87
2022-11-18T14:30:43.846Z,1.93
2022-11-18T14:33:13.600Z,3.03
2022-11-18T14:35:42.733Z,2.40
2022-11-18T14:38:40.629Z,3.63
2022-11-18T14:41:04.007Z,3.30
2022-11-18T14:43:33.871Z,2.80
2022-11-18T14:46:03.777Z,1.57
2022-11-18T14:48:33.218Z,1.77
2022-11-18T14:51:02.044Z,2.40
2022-11-18T14:53:30.942Z,2.53
2022-11-18T14:56:01.354Z,2.37
2022-11-18T14:58:29.840Z,2.10
2022-11-18T15:00:59.761Z,1.73
2022-11-18T15:03:28.339Z,3.00
2022-11-18T15:05:57.527Z,3.00
2022-11-18T15:08:25.954Z,3.13
2022-11-18T15:10:54.405Z,1.20
2022-11-18T15:13:22.857Z,1.27
2022-11-18T15:15:51.300Z,2.23
2022-11-18T15:18:25.068Z,3.40
2022-11-18T15:20:53.583Z,1.87
2022-11-18T15:23:25.745Z,3.13
2022-11-18T15:25:59.081Z,2.30
2022-11-18T15:28:27.580Z,2.50
2022-11-18T15:30:56.146Z,1.23
2022-11-18T15:33:26.593Z,2.10
2022-11-18T15:35:55.093Z,3.03
2022-11-18T15:38:23.630Z,3.37
2022-11-18T15:40:52.089Z,2.20
2022-11-18T15:43:21.141Z,3.97
2022-11-18T15:45:49.592Z,2.37
2022-11-18T15:48:18.048Z,2.33
2022-11-18T15:50:53.190Z,2.13
2022-11-18T15:53:23.014Z,4.50
2022-11-18T15:55:51.525Z,3.10
2022-11-18T15:58:20.560Z,3.30
2022-11-18T16:00:49.169Z,2.03
2022-11-18T16:03:19.904Z,3.83
2022-11-18T16:05:50.064Z,5.17
2022-11-18T16:08:21.101Z,3.57
2022-11-18T16:11:06.985Z,3.67
2022-11-18T16:13:36.009Z,2.57
2022-11-18T16:16:04.594Z,4.20
2022-11-18T16:18:35.407Z,2.43
2022-11-18T16:21:09.522Z,2.87
2022-11-18T16:23:38.157Z,4.10
2022-11-18T16:26:06.786Z,3.33
2022-11-18T16:28:35.282Z,4.63
2022-11-18T16:31:24.132Z,2.93
2022-11-18T16:33:55.142Z,4.13
2022-11-18T16:36:28.728Z,5.67
2022-11-18T16:38:57.201Z,3.30
2022-11-18T16:41:34.640Z,3.07
2022-11-18T16:44:04.721Z,3.13
2022-11-18T16:46:33.783Z,5.87
2022-11-18T16:49:02.540Z,6.20
2022-11-18T16:51:35.874Z,5.07
2022-11-18T16:54:04.757Z,4.30
2022-11-18T16:56:34.089Z,4.10
2022-11-18T16:59:03.763Z,5.03
2022-11-18T17:01:32.729Z,3.50
2022-11-18T17:04:01.652Z,4.47
2022-11-18T17:06:31.643Z,7.17
2022-11-18T17:09:01.666Z,4.60
2022-11-18T17:11:30.092Z,4.00
2022-11-18T17:13:58.618Z,5.70
2022-11-18T17:16:29.817Z,6.40
2022-11-18T17:18:58.945Z,6.80
2022-11-18T17:21:28.160Z,6.07
2022-11-18T17:23:56.723Z,4.83
2022-11-18T17:26:27.701Z,7.83
2022-11-18T17:28:57.950Z,6.70
2022-11-18T17:31:26.781Z,7.57
2022-11-18T17:33:56.288Z,7.27
2022-11-18T17:36:25.990Z,5.97
2022-11-18T17:38:55.499Z,6.07
2022-11-18T17:41:42.283Z,6.90
2022-11-18T17:44:13.236Z,7.80
2022-11-18T17:46:41.871Z,5.73
2022-11-18T17:49:13.415Z,7.70
2022-11-18T17:51:42.375Z,9.30
2022-11-18T17:54:11.158Z,7.37
2022-11-18T17:56:39.644Z,6.37
2022-11-18T17:59:08.458Z,6.73
2022-11-18T18:01:38.384Z,6.40
2022-11-18T18:04:07.273Z,6.87
2022-11-18T18:06:35.728Z,5.53
2022-11-18T18:09:04.221Z,10.70
2022-11-18T18:11:32.916Z,11.67
2022-11-18T18:14:12.714Z,9.03
2022-11-18T18:16:43.570Z,11.50
2022-11-18T18:19:12.968Z,9.17
2022-11-18T18:21:41.847Z,10.50
2022-11-18T18:24:10.940Z,12.83
2022-11-18T18:26:39.761Z,7.03
2022-11-18T18:29:08.227Z,6.13
2022-11-18T18:31:37.117Z,5.90
2022-11-18T18:34:06.964Z,7.83
2022-11-18T18:36:35.605Z,6.73
2022-11-18T18:39:06.190Z,8.30
2022-11-18T18:41:34.768Z,12.07
2022-11-18T18:44:03.974Z,7.47
2022-11-18T18:46:36.530Z,7.33
2022-11-18T18:49:08.123Z,5.40
2022-11-18T18:51:37.628Z,7.53
2022-11-18T18:54:06.522Z,6.30
2022-11-18T18:56:35.617Z,7.43
2022-11-18T18:59:04.164Z,5.33
2022-11-18T19:01:33.640Z,4.87
2022-11-18T19:04:03.278Z,6.27
2022-11-18T19:06:56.970Z,7.40
2022-11-18T19:09:23.431Z,8.73
2022-11-18T19:12:10.167Z,6.77
2022-11-18T19:14:39.152Z,6.10
2022-11-18T19:17:11.128Z,7.27
2022-11-18T19:19:59.300Z,6.40
2022-11-18T19:22:30.476Z,6.37
2022-11-18T19:24:59.671Z,5.43
2022-11-18T19:27:28.380Z,4.20
2022-11-18T19:29:56.953Z,3.80
2022-11-18T19:32:25.463Z,4.03
2022-11-18T19:34:53.992Z,6.57
2022-11-18T19:37:22.928Z,7.43
2022-11-18T19:39:53.045Z,4.80
2022-11-18T19:42:28.840Z,6.13
2022-11-18T19:44:57.280Z,6.60
2022-11-18T19:47:25.876Z,6.97
2022-11-18T19:49:57.997Z,5.03
2022-11-18T19:52:28.564Z,6.63
2022-11-18T19:54:58.708Z,4.87
2022-11-18T19:57:27.368Z,5.00
2022-11-18T19:59:55.949Z,4.60
2022-11-18T20:02:25.787Z,6.50
2022-11-18T20:05:17.078Z,4.53
2022-11-18T20:07:45.535Z,5.60
2022-11-18T20:10:16.585Z,4.07
2022-11-18T20:12:45.257Z,7.47
2022-11-18T20:15:14.154Z,4.63
2022-11-18T20:17:42.741Z,7.30
2022-11-18T20:20:12.000Z,5.47
2022-11-18T20:22:40.698Z,3.50
2022-11-18T20:25:10.017Z,5.53
2022-11-18T20:27:40.063Z,5.13
2022-11-18T20:30:08.966Z,5.60
2022-11-18T20:32:37.568Z,4.30
2022-11-18T20:35:06.286Z,3.43
2022-11-18T20:37:35.662Z,3.97
2022-11-18T20:40:05.155Z,3.20
2022-11-18T20:42:52.856Z,4.40
2022-11-18T20:45:23.617Z,4.17
2022-11-18T20:47:52.196Z,5.57
2022-11-18T20:50:21.087Z,3.73
2022-11-18T20:52:49.587Z,4.27
2022-11-18T20:55:18.338Z,2.47
2022-11-18T20:57:47.137Z,4.37
2022-11-18T21:00:16.242Z,3.93
2022-11-18T21:02:46.541Z,4.57
2022-11-18T21:05:16.066Z,4.80
2022-11-18T21:07:44.903Z,3.17
2022-11-18T21:10:14.600Z,5.10
2022-11-18T21:13:03.140Z,3.73
2022-11-18T21:15:30.848Z,3.80
2022-11-18T21:18:00.807Z,2.60
2022-11-18T21:20:46.992Z,4.30
2022-11-18T21:23:15.618Z,3.77
2022-11-18T21:25:44.637Z,5.03
2022-11-18T21:28:13.116Z,3.70
2022-11-18T21:30:41.819Z,4.50
2022-11-18T21:33:12.229Z,4.13
2022-11-18T21:35:40.731Z,2.33
2022-11-18T21:38:09.758Z,3.87
2022-11-18T21:40:38.263Z,4.23
2022-11-18T21:43:06.717Z,5.03
2022-11-18T21:45:35.315Z,4.23
2022-11-18T21:48:03.835Z,3.23
2022-11-18T21:50:33.695Z,3.03
2022-11-18T21:53:02.477Z,2.53
2022-11-18T21:55:31.281Z,2.90
2022-11-18T21:58:02.958Z,2.63
2022-11-18T22:00:33.047Z,2.80
2022-11-18T22:03:02.570Z,2.40
2022-11-18T22:05:31.255Z,3.33
2022-11-18T22:08:03.399Z,2.90
2022-11-18T22:10:32.194Z,2.70
2022-11-18T22:13:00.825Z,2.40
2022-11-18T22:15:29.657Z,4.37
2022-11-18T22:17:58.111Z,3.23
2022-11-18T22:20:27.479Z,2.60
2022-11-18T22:22:56.695Z,2.10
2022-11-18T22:25:26.922Z,1.93
2022-11-18T22:27:56.472Z,3.10
2022-11-18T22:30:25.245Z,2.80
2022-11-18T22:32:53.751Z,2.87
2022-11-18T22:35:22.230Z,5.70
2022-11-18T22:37:52.066Z,7.23
2022-11-18T22:40:20.623Z,3.40
2022-11-18T22:42:50.950Z,3.97
2022-11-18T22:45:19.727Z,3.43
2022-11-18T22:47:48.350Z,2.70
2022-11-18T22:50:17.141Z,3.33
2022-11-18T22:52:45.673Z,1.83
2022-11-18T22:55:14.220Z,2.90
2022-11-18T22:57:44.237Z,4.27
2022-11-18T23:00:15.744Z,2.97
2022-11-18T23:02:44.235Z,3.17
2022-11-18T23:05:12.704Z,3.10
2022-11-18T23:07:41.261Z,2.87
2022-11-18T23:10:10.042Z,3.13
2022-11-18T23:12:55.869Z,3.83
2022-11-18T23:15:25.934Z,2.73
2022-11-18T23:17:54.373Z,5.10
2022-11-18T23:20:23.008Z,4.10
2022-11-18T23:22:51.543Z,2.60
2022-11-18T23:25:19.954Z,3.90
2022-11-18T23:27:53.964Z,4.03
2022-11-18T23:30:22.757Z,2.57
2022-11-18T23:32:54.850Z,3.10
2022-11-18T23:35:24.466Z,2.97
2022-11-18T23:37:52.921Z,4.53
2022-11-18T23:40:21.469Z,2.50
2022-11-18T23:42:49.900Z,3.43
2022-11-18T23:45:18.657Z,6.13
2022-11-18T23:47:47.392Z,3.17
2022-11-18T23:50:17.328Z,4.83
2022-11-18T23:52:45.777Z,2.10
2022-11-18T23:55:14.197Z,3.73
2022-11-18T23:57:42.629Z,2.87
